Time;durP1;ratioP1;P1;durP2;ratioP2;P2;SDS_P1;SDS_P2;PMS_P1;PMS_P2;Temp;Humidity;BMP_temperature;BMP_pressure;BME280_temperature;BME280_humidity;BME280_pressure;Samples;Min_cycle;Max_cycle;Signal;HPM_P1;HPM_P2
2021/11/09 00:00:33;;;;;;;7.32;4.22;;;;;;;7.82;100.00;101707.31;4969941;28;20062;-81
2021/11/09 00:03:04;;;;;;;10.65;4.82;;;;;;;7.83;100.00;101716.09;4970481;28;20042;-82
2021/11/09 00:05:31;;;;;;;9.17;4.77;;;;;;;7.81;100.00;101721.31;4954327;28;20074;-82
2021/11/09 00:08:07;;;;;;;11.93;5.10;;;;;;;7.80;100.00;101710.78;4982361;28;20042;-82
2021/11/09 00:10:33;;;;;;;12.07;4.93;;;;;;;7.74;100.00;101714.25;4973810;28;20050;-82
2021/11/09 00:13:02;;;;;;;9.68;4.55;;;;;;;7.75;100.00;101721.28;4957288;28;20089;-82
2021/11/09 00:15:32;;;;;;;7.35;4.75;;;;;;;7.79;100.00;101717.78;4971943;28;20046;-81
2021/11/09 00:18:01;;;;;;;9.85;4.35;;;;;;;7.80;100.00;101724.81;4957165;28;20046;-82
2021/11/09 00:20:29;;;;;;;10.03;4.70;;;;;;;7.78;100.00;101726.56;4956097;28;20054;-81
2021/11/09 00:22:56;;;;;;;7.23;4.33;;;;;;;7.79;100.00;101727.44;4970706;28;20055;-81
2021/11/09 00:25:24;;;;;;;11.10;4.87;;;;;;;7.76;100.00;101730.94;4970990;28;20038;-81
2021/11/09 00:27:51;;;;;;;10.43;4.17;;;;;;;7.78;100.00;101728.31;4957657;28;20534;-81
2021/11/09 00:30:20;;;;;;;8.52;3.63;;;;;;;7.79;100.00;101738.84;4972007;28;20042;-81
2021/11/09 00:32:48;;;;;;;7.47;4.17;;;;;;;7.81;100.00;101744.97;4973115;28;20056;-81
2021/11/09 00:35:19;;;;;;;6.30;3.58;;;;;;;7.82;100.00;101749.41;4955991;28;20038;-82
2021/11/09 00:37:46;;;;;;;5.70;3.67;;;;;;;7.83;100.00;101752.91;4957193;28;20519;-82
2021/11/09 00:40:14;;;;;;;7.07;3.67;;;;;;;7.83;100.00;101751.16;4953088;28;20039;-81
2021/11/09 00:42:41;;;;;;;6.50;3.40;;;;;;;7.83;100.00;101748.53;4967094;28;20054;-82
2021/11/09 00:45:10;;;;;;;6.85;3.15;;;;;;;7.83;100.00;101750.28;4956010;28;20047;-82
2021/11/09 00:47:40;;;;;;;6.63;3.60;;;;;;;7.83;100.00;101756.44;4957619;28;20061;-82
2021/11/09 00:50:09;;;;;;;7.68;3.85;;;;;;;7.86;100.00;101758.19;4947780;28;20397;-82
2021/11/09 00:52:36;;;;;;;7.85;6.07;;;;;;;7.87;100.00;101750.31;4972928;28;20042;-82
2021/11/09 00:55:04;;;;;;;9.98;4.57;;;;;;;7.85;100.00;101748.53;4987603;28;20042;-81
2021/11/09 00:57:31;;;;;;;7.00;4.13;;;;;;;7.85;100.00;101751.16;4956305;28;20050;-82
2021/11/09 00:59:57;;;;;;;7.97;4.97;;;;;;;7.85;100.00;101749.41;4955251;28;20101;-82
2021/11/09 01:02:24;;;;;;;9.05;4.60;;;;;;;7.86;100.00;101755.56;4953419;28;20050;-82
2021/11/09 01:04:51;;;;;;;9.20;4.90;;;;;;;7.87;100.00;101755.56;4970713;28;20055;-82
2021/11/09 01:07:18;;;;;;;8.30;4.68;;;;;;;7.85;100.00;101751.16;4956503;28;20544;-82
2021/11/09 01:09:45;;;;;;;11.27;5.18;;;;;;;7.86;100.00;101745.91;4955050;28;20533;-82
2021/11/09 01:12:12;;;;;;;13.50;6.25;;;;;;;7.87;100.00;101745.03;4975370;28;20042;-82
2021/11/09 01:14:40;;;;;;;9.07;5.35;;;;;;;7.86;100.00;101743.28;4952552;28;20079;-81
2021/11/09 01:17:07;;;;;;;11.30;6.05;;;;;;;7.85;100.00;101749.41;4956523;28;20039;-82
2021/11/09 01:19:34;;;;;;;9.27;5.82;;;;;;;7.84;100.00;101747.66;4987191;28;20050;-82
2021/11/09 01:22:03;;;;;;;10.13;6.10;;;;;;;7.84;100.00;101745.03;4973284;28;20051;-81
2021/11/09 01:24:30;;;;;;;8.82;4.72;;;;;;;7.84;100.00;101752.03;4971211;28;20054;-82
2021/11/09 01:26:57;;;;;;;10.15;5.53;;;;;;;7.84;100.00;101752.03;4966965;28;20600;-81
2021/11/09 01:29:24;;;;;;;9.68;5.68;;;;;;;7.85;100.00;101746.78;4959677;28;20488;-82
2021/11/09 01:31:54;;;;;;;18.98;6.45;;;;;;;7.83;100.00;101743.28;4960746;28;20047;-82
2021/11/09 01:34:28;;;;;;;10.80;5.55;;;;;;;7.81;100.00;101744.09;4977323;28;20050;-84
2021/11/09 01:36:55;;;;;;;9.80;5.10;;;;;;;7.83;100.00;101748.53;4961974;28;20667;-83
2021/11/09 01:39:24;;;;;;;12.90;6.30;;;;;;;7.83;100.00;101743.28;5035551;23;20061;-83
2021/11/09 01:41:51;;;;;;;8.93;4.95;;;;;;;7.81;100.00;101742.34;4999938;28;20165;-82
2021/11/09 01:44:18;;;;;;;13.10;6.00;;;;;;;7.86;100.00;101750.31;4997264;28;20042;-81
2021/11/09 01:46:46;;;;;;;9.75;5.30;;;;;;;7.83;100.00;101751.16;5013580;28;20041;-81
2021/11/09 01:49:13;;;;;;;11.43;5.95;;;;;;;7.82;100.00;101752.03;5028766;28;20038;-81
2021/11/09 01:51:40;;;;;;;11.63;6.38;;;;;;;7.83;100.00;101750.28;5026213;28;20057;-82
2021/11/09 01:54:07;;;;;;;10.75;5.85;;;;;;;7.80;100.00;101750.25;4993694;28;20045;-81
2021/11/09 01:56:35;;;;;;;8.60;5.53;;;;;;;7.82;100.00;101741.50;4995459;28;20056;-81
2021/11/09 01:59:02;;;;;;;14.23;5.85;;;;;;;7.85;100.00;101745.91;5007472;28;20053;-81
2021/11/09 02:01:29;;;;;;;9.73;5.25;;;;;;;7.78;100.00;101744.09;4993732;28;20092;-81
2021/11/09 02:04:00;;;;;;;10.90;5.88;;;;;;;7.78;100.00;101746.72;5007299;28;20066;-80
2021/11/09 02:06:27;;;;;;;9.57;5.60;;;;;;;7.78;100.00;101750.22;4996095;28;20376;-81
2021/11/09 02:09:10;;;;;;;11.55;6.20;;;;;;;7.84;100.00;101754.69;5026439;28;20048;-81
2021/11/09 02:11:37;;;;;;;10.98;5.85;;;;;;;7.80;100.00;101759.00;4987614;28;20541;-81
2021/11/09 02:14:04;;;;;;;11.15;5.30;;;;;;;7.78;100.00;101757.25;5024243;28;20042;-82
2021/11/09 02:16:32;;;;;;;11.05;5.70;;;;;;;7.76;100.00;101762.50;4995897;28;20113;-81
2021/11/09 02:18:59;;;;;;;10.32;5.57;;;;;;;7.76;100.00;101764.25;5025992;28;20037;-82
2021/11/09 02:21:27;;;;;;;12.43;5.97;;;;;;;7.76;100.00;101759.00;4991910;28;20050;-81
2021/11/09 02:23:54;;;;;;;13.40;6.18;;;;;;;7.77;100.00;101755.50;4995095;28;20038;-81
2021/11/09 02:26:22;;;;;;;11.35;6.18;;;;;;;7.77;100.00;101748.47;4984754;28;20053;-82
2021/11/09 02:28:52;;;;;;;11.10;5.45;;;;;;;7.77;100.00;101758.13;5009751;28;20042;-81
2021/11/09 02:31:20;;;;;;;10.35;5.35;;;;;;;7.76;100.00;101757.25;4995268;28;20046;-80
2021/11/09 02:33:48;;;;;;;10.48;5.88;;;;;;;7.77;100.00;101752.84;5010412;28;20073;-83
2021/11/09 02:36:17;;;;;;;10.23;6.00;;;;;;;7.76;100.00;101759.88;5024772;28;20034;-82
2021/11/09 02:38:45;;;;;;;10.10;6.40;;;;;;;7.86;100.00;101771.34;5016153;28;20042;-81
2021/11/09 02:41:13;;;;;;;10.73;5.72;;;;;;;7.80;100.00;101774.78;5027798;28;20033;-82
2021/11/09 02:43:40;;;;;;;7.93;4.88;;;;;;;7.76;100.00;101778.28;5011262;28;20050;-81
2021/11/09 02:49:01;;;;;;;11.27;5.65;;;;;;;7.76;100.00;101787.94;5026645;28;20422;-82
2021/11/09 02:51:39;;;;;;;9.30;5.95;;;;;;;7.75;100.00;101783.53;5006575;28;20090;-81
2021/11/09 02:54:22;;;;;;;10.15;5.95;;;;;;;7.76;100.00;101798.44;4991199;28;20043;-80
2021/11/09 02:57:01;;;;;;;12.40;6.43;;;;;;;7.78;100.00;101797.59;5019532;28;20064;-81
2021/11/09 02:59:41;;;;;;;10.13;6.90;;;;;;;7.78;100.00;101797.59;4992971;28;20081;-83
2021/11/09 03:07:37;;;;;;;11.83;6.57;;;;;;;7.80;100.00;101802.84;5003613;28;20141;-80
2021/11/09 03:10:16;;;;;;;11.83;6.07;;;;;;;7.82;100.00;101803.78;5013954;28;20045;-81
2021/11/09 03:12:44;;;;;;;10.05;6.35;;;;;;;7.80;100.00;101803.72;4999028;28;20053;-80
2021/11/09 03:15:13;;;;;;;11.65;6.05;;;;;;;7.79;100.00;101803.72;4994512;28;20543;-79
2021/11/09 03:17:45;;;;;;;8.20;5.00;;;;;;;7.78;100.00;101796.72;5027424;28;20022;-80
2021/11/09 03:45:18;;;;;;;13.25;7.07;;;;;;;7.74;100.00;101814.22;5023488;28;20042;-80
2021/11/09 03:47:49;;;;;;;8.95;4.90;;;;;;;7.74;100.00;101815.97;5023899;28;20052;-81
2021/11/09 03:50:18;;;;;;;12.32;7.40;;;;;;;7.73;100.00;101814.19;5020181;28;20096;-80
2021/11/09 03:53:01;;;;;;;8.73;5.55;;;;;;;7.73;100.00;101820.31;5014928;28;20109;-81
2021/11/09 04:00:45;;;;;;;12.52;6.47;;;;;;;7.73;100.00;101828.22;5031761;28;20177;-81
2021/11/09 04:05:43;;;;;;;8.68;5.63;;;;;;;7.71;100.00;101829.06;5046932;28;20052;-80
2021/11/09 04:08:31;;;;;;;11.10;6.03;;;;;;;7.72;100.00;101830.84;5019973;28;20044;-80
2021/11/09 04:11:14;;;;;;;10.80;5.80;;;;;;;7.72;100.00;101836.09;5024904;28;20053;-82
2021/11/09 04:14:07;;;;;;;9.70;5.90;;;;;;;7.71;100.00;101835.22;4996531;28;21094;-81
2021/11/09 04:16:40;;;;;;;10.10;6.18;;;;;;;7.72;100.00;101841.34;4987014;28;20045;-80
2021/11/09 04:26:18;;;;;;;10.70;5.80;;;;;;;7.70;100.00;101853.63;5031162;28;20048;-82
2021/11/09 04:29:00;;;;;;;10.95;6.05;;;;;;;7.72;100.00;101858.03;5016903;28;20041;-80
2021/11/09 05:09:11;;;;;;;11.35;6.10;;;;;;;7.77;100.00;101894.91;5025898;28;20041;-83
2021/11/09 05:11:39;;;;;;;11.85;6.13;;;;;;;7.76;100.00;101887.91;5027483;28;20057;-81
2021/11/09 05:14:07;;;;;;;14.55;7.18;;;;;;;7.76;100.00;101896.66;5029880;28;20038;-80
2021/11/09 05:16:34;;;;;;;14.20;7.80;;;;;;;7.78;100.00;101900.19;5035612;28;20101;-81
2021/11/09 05:19:04;;;;;;;12.52;6.30;;;;;;;7.79;100.00;101895.81;5016709;28;20037;-80
2021/11/09 05:21:31;;;;;;;12.27;6.45;;;;;;;7.78;100.00;101896.66;5020502;28;20049;-81
2021/11/09 05:23:58;;;;;;;11.15;6.05;;;;;;;7.82;100.00;101899.38;5018395;28;20076;-80
2021/11/09 05:26:25;;;;;;;11.13;6.18;;;;;;;7.82;100.00;101895.84;5017808;28;20030;-80
2021/11/09 05:28:52;;;;;;;11.30;6.70;;;;;;;7.80;100.00;101894.94;5032575;28;20104;-82
2021/11/09 05:31:19;;;;;;;10.05;5.55;;;;;;;7.79;100.00;101899.31;5038324;28;20069;-82
2021/11/09 05:33:47;;;;;;;11.93;5.97;;;;;;;7.82;100.00;101901.13;5030527;28;20053;-80
2021/11/09 05:36:14;;;;;;;10.27;5.78;;;;;;;7.80;100.00;101903.72;5030709;28;20049;-81
2021/11/09 05:38:49;;;;;;;9.85;6.15;;;;;;;7.83;100.00;101903.75;4999770;28;20054;-81
2021/11/09 05:41:18;;;;;;;13.55;6.30;;;;;;;7.81;100.00;101910.72;5030382;28;20105;-83
2021/11/09 05:43:44;;;;;;;11.18;7.90;;;;;;;7.84;100.00;101925.69;5023947;28;20113;-81
2021/11/09 05:46:16;;;;;;;7.93;5.45;;;;;;;7.80;100.00;101932.66;5024538;28;20055;-81
2021/11/09 05:48:43;;;;;;;10.30;6.25;;;;;;;7.84;100.00;101936.22;5034805;28;20059;-82
2021/11/09 05:51:10;;;;;;;10.38;6.22;;;;;;;7.84;100.00;101934.47;5034117;28;20041;-83
2021/11/09 05:53:38;;;;;;;11.27;7.38;;;;;;;7.84;100.00;101930.94;5044920;28;20091;-81
2021/11/09 05:56:08;;;;;;;10.73;5.88;;;;;;;7.84;100.00;101934.47;5037506;28;20044;-81
2021/11/09 05:58:37;;;;;;;11.82;5.70;;;;;;;7.84;100.00;101938.84;5020559;28;20056;-81
2021/11/09 06:01:05;;;;;;;14.32;6.78;;;;;;;7.85;100.00;101936.22;5063453;23;20099;-84
2021/11/09 06:03:32;;;;;;;11.63;6.43;;;;;;;7.86;100.00;101934.47;4963574;28;20078;-83
2021/11/09 06:05:59;;;;;;;9.60;6.10;;;;;;;7.86;100.00;101945.88;4938041;28;20046;-83
2021/11/09 06:08:26;;;;;;;12.07;6.87;;;;;;;7.85;100.00;101945.88;4935949;28;20075;-84
2021/11/09 06:10:57;;;;;;;13.80;7.05;;;;;;;7.88;100.00;101949.41;4935537;28;20051;-83
2021/11/09 06:13:24;;;;;;;11.02;6.70;;;;;;;7.88;100.00;101957.28;4949733;28;20124;-84
2021/11/09 06:15:51;;;;;;;13.38;7.72;;;;;;;7.88;100.00;101959.03;4919845;28;20043;-85
2021/11/09 06:18:18;;;;;;;14.13;8.00;;;;;;;7.88;100.00;101959.94;4933428;28;20043;-84
2021/11/09 06:20:45;;;;;;;13.45;7.85;;;;;;;7.94;100.00;101974.03;4950172;28;20139;-84
2021/11/09 06:23:11;;;;;;;13.02;7.72;;;;;;;7.83;100.00;101974.81;4969680;28;20112;-84
2021/11/09 06:25:39;;;;;;;12.23;7.47;;;;;;;7.90;100.00;101975.72;4938048;28;20096;-84
2021/11/09 06:28:06;;;;;;;17.17;8.30;;;;;;;7.89;100.00;101981.84;4961334;28;20047;-86
2021/11/09 06:30:33;;;;;;;13.75;8.20;;;;;;;7.85;100.00;101978.31;4937033;28;20514;-84
2021/11/09 06:33:00;;;;;;;16.10;8.52;;;;;;;7.85;100.00;101980.94;4938109;28;20627;-84
2021/11/09 06:35:27;;;;;;;16.95;8.55;;;;;;;7.87;100.00;101989.75;4952833;28;20042;-84
2021/11/09 06:37:54;;;;;;;15.75;8.10;;;;;;;7.87;100.00;101997.63;4953769;28;20043;-84
2021/11/09 06:40:21;;;;;;;12.38;7.43;;;;;;;7.86;100.00;102003.75;4937227;28;20438;-84
2021/11/09 06:42:48;;;;;;;14.05;8.23;;;;;;;7.86;100.00;102001.13;4946935;28;20043;-84
2021/11/09 06:45:15;;;;;;;10.20;6.53;;;;;;;7.83;100.00;102013.38;4927418;28;20458;-84
2021/11/09 06:47:43;;;;;;;12.30;7.18;;;;;;;7.83;100.00;102018.66;4933999;29;20530;-84
2021/11/09 06:50:11;;;;;;;13.75;7.57;;;;;;;7.84;100.00;102018.66;4936464;28;20042;-85
2021/11/09 06:52:38;;;;;;;11.93;7.80;;;;;;;7.83;100.00;102022.16;4969517;28;20042;-84
2021/11/09 06:55:05;;;;;;;14.15;7.30;;;;;;;7.84;100.00;102028.31;4961594;28;20054;-83
2021/11/09 06:57:40;;;;;;;15.52;8.10;;;;;;;7.88;100.00;102030.09;4939602;28;20069;-84
2021/11/09 07:00:10;;;;;;;16.63;9.15;;;;;;;7.96;100.00;102035.44;4936360;28;20458;-87
2021/11/09 07:02:37;;;;;;;16.80;8.75;;;;;;;7.96;100.00;102043.34;4937541;28;20050;-83
2021/11/09 07:05:05;;;;;;;12.50;7.60;;;;;;;7.96;100.00;102048.59;4936674;28;20051;-84
2021/11/09 07:07:32;;;;;;;15.50;8.15;;;;;;;7.95;100.00;102046.84;4936735;28;20054;-84
2021/11/09 07:09:58;;;;;;;13.77;7.32;;;;;;;8.01;100.00;102041.66;4952181;28;20035;-84
2021/11/09 07:12:27;;;;;;;15.52;7.97;;;;;;;8.04;100.00;102049.59;4938012;28;20099;-85
2021/11/09 07:14:54;;;;;;;16.65;8.35;;;;;;;8.09;100.00;102046.16;4935903;28;20054;-84
2021/11/09 07:17:21;;;;;;;12.60;7.65;;;;;;;8.09;100.00;102053.16;4936947;28;20072;-84
2021/11/09 07:19:50;;;;;;;17.08;9.07;;;;;;;8.06;100.00;102054.00;4935394;28;20514;-82
2021/11/09 07:22:21;;;;;;;13.75;9.20;;;;;;;8.10;100.00;102061.09;4952826;28;20511;-84
2021/11/09 07:24:48;;;;;;;15.80;7.97;;;;;;;8.12;100.00;102064.59;4951332;28;20500;-83
2021/11/09 07:27:15;;;;;;;16.63;7.57;;;;;;;8.15;100.00;102066.38;4936452;28;20046;-83
2021/11/09 07:29:49;;;;;;;16.60;8.75;;;;;;;8.17;100.00;102070.81;4950343;28;20047;-85
2021/11/09 07:32:17;;;;;;;;;;;;;;;8.16;100.00;102074.31;4954105;28;20043;-84
2021/11/09 07:34:44;;;;;;;13.93;7.88;;;;;;;8.20;100.00;102080.50;4936175;28;20493;-84
2021/11/09 07:37:11;;;;;;;33.13;13.55;;;;;;;8.18;100.00;102091.00;4974664;28;20085;-84
2021/11/09 07:39:38;;;;;;;19.60;10.48;;;;;;;8.23;100.00;102092.81;4951771;28;20047;-85
2021/11/09 07:42:07;;;;;;;14.48;7.57;;;;;;;8.24;100.00;102091.94;4953029;28;20069;-84
2021/11/09 07:44:34;;;;;;;17.15;9.02;;;;;;;8.22;100.00;102102.44;5004605;28;20475;-85
2021/11/09 07:47:01;;;;;;;17.48;8.57;;;;;;;8.24;100.00;102099.84;4952075;28;20039;-84
2021/11/09 07:49:28;;;;;;;15.32;8.40;;;;;;;8.29;100.00;102101.66;4935894;28;20050;-85
2021/11/09 07:51:55;;;;;;;18.83;9.73;;;;;;;8.32;100.00;102116.59;4952764;28;20050;-84
2021/11/09 07:54:26;;;;;;;16.08;8.18;;;;;;;8.27;100.00;102113.06;4935905;28;20043;-86
2021/11/09 07:57:01;;;;;;;15.85;8.90;;;;;;;8.27;100.00;102108.66;4937327;28;20065;-84
2021/11/09 07:59:32;;;;;;;17.88;9.05;;;;;;;8.29;100.00;102101.66;4952409;28;20507;-84
2021/11/09 08:02:02;;;;;;;16.23;9.48;;;;;;;8.30;100.00;102100.78;4953439;28;20062;-84
2021/11/09 08:07:20;;;;;;;13.93;8.18;;;;;;;8.34;100.00;102115.78;4957682;28;20138;-84
2021/11/09 08:09:47;;;;;;;17.17;10.07;;;;;;;8.41;100.00;102116.78;4936010;28;20054;-84
2021/11/09 08:12:14;;;;;;;20.42;9.88;;;;;;;8.38;100.00;102116.72;4936932;28;20051;-85
2021/11/09 08:14:40;;;;;;;18.35;9.05;;;;;;;8.40;100.00;102115.88;4935283;28;20050;-85
2021/11/09 08:17:07;;;;;;;15.20;8.50;;;;;;;8.38;100.00;102116.72;4936290;28;20419;-84
2021/11/09 08:19:34;;;;;;;19.05;10.68;;;;;;;8.38;100.00;102111.47;4951032;28;20043;-84
2021/11/09 08:22:03;;;;;;;17.90;8.70;;;;;;;8.39;100.00;102114.09;4936833;28;20078;-85
2021/11/09 08:24:30;;;;;;;16.85;10.13;;;;;;;8.43;100.00;102113.28;4935402;28;20054;-84
2021/11/09 08:26:58;;;;;;;19.42;9.70;;;;;;;8.50;100.00;102116.88;4936297;28;20043;-84
2021/11/09 08:29:26;;;;;;;20.58;9.43;;;;;;;8.58;100.00;102109.06;4935182;28;20051;-84
2021/11/09 08:31:57;;;;;;;17.95;9.15;;;;;;;8.63;100.00;102113.50;4994442;28;20094;-83
2021/11/09 08:34:26;;;;;;;15.15;8.25;;;;;;;8.66;100.00;102120.53;5038668;28;20044;-86
2021/11/09 08:36:53;;;;;;;20.83;10.38;;;;;;;8.67;100.00;102122.34;5056843;28;20474;-84
2021/11/09 08:39:22;;;;;;;18.73;10.77;;;;;;;8.72;100.00;102124.13;5039426;28;20048;-86
2021/11/09 08:42:01;;;;;;;21.52;10.93;;;;;;;8.77;100.00;102124.19;5024394;28;20055;-84
2021/11/09 08:44:33;;;;;;;18.48;9.57;;;;;;;8.75;100.00;102123.31;4939560;28;20116;-84
2021/11/09 08:47:01;;;;;;;19.55;11.48;;;;;;;8.69;100.00;102123.22;4970545;28;20074;-84
2021/11/09 08:49:30;;;;;;;25.05;12.35;;;;;;;8.71;100.00;102132.03;4986409;28;20458;-84
2021/11/09 08:51:59;;;;;;;21.10;10.45;;;;;;;8.74;100.00;102126.78;4951365;28;20048;-85
2021/11/09 08:54:32;;;;;;;21.23;10.75;;;;;;;8.80;100.00;102133.88;4952611;28;20066;-84
2021/11/09 08:57:20;;;;;;;26.10;12.15;;;;;;;8.87;100.00;102135.72;4952451;28;20047;-83
2021/11/09 09:05:12;;;;;;;25.85;11.20;;;;;;;8.85;100.00;102138.34;4936578;28;20039;-85
2021/11/09 09:07:39;;;;;;;20.40;10.77;;;;;;;8.82;100.00;102138.28;4935732;28;20051;-84
2021/11/09 09:10:10;;;;;;;23.33;10.15;;;;;;;8.86;100.00;102142.72;4934624;28;20052;-83
2021/11/09 09:12:40;;;;;;;18.10;9.80;;;;;;;8.89;100.00;102144.50;4951517;28;20436;-83
2021/11/09 09:15:13;;;;;;;19.42;10.68;;;;;;;8.98;100.00;102148.13;4919371;28;20044;-83
2021/11/09 09:17:40;;;;;;;17.52;10.20;;;;;;;9.05;100.00;102156.09;4935309;28;20412;-84
2021/11/09 09:20:14;;;;;;;14.90;9.40;;;;;;;9.15;100.00;102152.66;4918779;28;20051;-87
2021/11/09 09:25:26;;;;;;;15.95;8.38;;;;;;;9.24;100.00;102151.00;4954006;28;20054;-85
2021/11/09 09:31:05;;;;;;;13.90;7.75;;;;;;;9.37;100.00;102161.66;4956989;28;20047;-84
2021/11/09 09:55:38;;;;;;;16.20;8.32;;;;;;;9.51;100.00;102192.56;4959268;28;20491;-84
2021/11/09 09:58:07;;;;;;;14.57;7.85;;;;;;;9.51;100.00;102189.94;4939398;28;20038;-86
2021/11/09 10:00:36;;;;;;;12.63;7.32;;;;;;;9.45;100.00;102195.16;4985637;28;20415;-85
2021/11/09 10:03:03;;;;;;;14.23;6.88;;;;;;;9.45;100.00;102202.19;4958181;28;20069;-85
2021/11/09 10:05:35;;;;;;;10.98;7.00;;;;;;;9.52;100.00;102189.06;5018166;28;20050;-86
2021/11/09 10:08:15;;;;;;;12.55;7.38;;;;;;;9.50;100.00;102201.38;4939054;28;20046;-85
2021/11/09 10:10:42;;;;;;;10.75;6.75;;;;;;;9.50;100.00;102206.63;4938321;28;20169;-84
2021/11/09 10:13:23;;;;;;;19.40;7.80;;;;;;;9.51;100.00;102205.75;5021479;28;20047;-85
2021/11/09 10:15:53;;;;;;;13.13;6.90;;;;;;;9.52;100.00;102198.72;4955084;28;20050;-85
2021/11/09 10:18:22;;;;;;;14.52;7.40;;;;;;;9.50;100.00;102204.00;4937351;28;20043;-85
2021/11/09 10:20:51;;;;;;;16.90;7.80;;;;;;;9.52;100.00;102206.66;4954471;28;20042;-87
2021/11/09 10:23:27;;;;;;;16.80;8.32;;;;;;;9.50;100.00;102203.09;4937758;28;20047;-85
2021/11/09 10:26:00;;;;;;;12.35;6.93;;;;;;;9.46;100.00;102204.81;4938311;28;20050;-84
2021/11/09 10:28:27;;;;;;;12.27;6.97;;;;;;;9.48;100.00;102202.19;4937311;28;20054;-84
2021/11/09 10:30:57;;;;;;;14.88;7.65;;;;;;;9.46;100.00;102203.94;4953890;28;20089;-85
2021/11/09 10:33:27;;;;;;;17.17;8.20;;;;;;;9.48;100.00;102196.91;4952038;28;20511;-85
2021/11/09 10:35:54;;;;;;;15.73;7.72;;;;;;;9.56;100.00;102195.22;4954026;28;20515;-85
2021/11/09 10:38:30;;;;;;;13.45;8.32;;;;;;;9.58;100.00;102194.41;4936126;28;20050;-85
2021/11/09 10:41:02;;;;;;;14.82;8.05;;;;;;;9.56;100.00;102193.47;4937981;28;20515;-85
2021/11/09 10:43:30;;;;;;;15.45;8.48;;;;;;;9.59;100.00;102190.88;4935862;28;20050;-84
2021/11/09 10:45:57;;;;;;;14.35;8.52;;;;;;;9.66;100.00;102185.63;4953979;28;20482;-85
2021/11/09 10:48:24;;;;;;;15.30;8.52;;;;;;;9.66;100.00;102181.22;4951652;28;20069;-84
2021/11/09 10:50:56;;;;;;;16.85;9.00;;;;;;;9.69;100.00;102180.41;4937743;28;20524;-84
2021/11/09 10:53:35;;;;;;;13.63;9.23;;;;;;;9.72;100.00;102181.28;4948436;28;20085;-83
2021/11/09 10:56:19;;;;;;;17.27;9.63;;;;;;;9.73;100.00;102175.13;4954373;28;20097;-84
2021/11/09 10:59:08;;;;;;;27.55;13.10;;;;;;;9.80;100.00;102182.22;4937481;28;20104;-86
2021/11/09 11:04:38;;;;;;;26.95;13.07;;;;;;;9.91;100.00;102168.22;4954336;28;20125;-85
2021/11/09 11:07:10;;;;;;;18.75;8.88;;;;;;;9.94;100.00;102161.22;4953070;28;20093;-84
2021/11/09 11:09:38;;;;;;;15.57;8.10;;;;;;;9.99;100.00;102158.56;4935600;28;20423;-85
2021/11/09 11:12:10;;;;;;;15.55;8.23;;;;;;;10.03;100.00;102163.91;4950803;28;20050;-85
2021/11/09 11:14:42;;;;;;;14.95;9.00;;;;;;;10.08;100.00;102159.50;4942565;28;20110;-85
2021/11/09 11:17:13;;;;;;;16.38;9.88;;;;;;;10.12;100.00;102160.44;4953415;28;20051;-85
2021/11/09 11:19:46;;;;;;;36.03;26.20;;;;;;;10.22;100.00;102166.63;4951507;28;20080;-85
2021/11/09 11:22:16;;;;;;;28.88;20.00;;;;;;;10.25;100.00;102166.69;4936815;28;20137;-84
2021/11/09 11:24:44;;;;;;;17.00;11.38;;;;;;;10.27;100.00;102171.13;4951225;28;20531;-84
2021/11/09 11:27:12;;;;;;;22.45;12.60;;;;;;;10.25;100.00;102175.47;4936569;28;20500;-84
2021/11/09 11:29:39;;;;;;;18.45;10.05;;;;;;;10.21;100.00;102178.06;4935727;28;20043;-83
2021/11/09 11:32:08;;;;;;;16.20;11.60;;;;;;;10.24;100.00;102175.47;4936474;28;20043;-83
2021/11/09 11:34:34;;;;;;;15.60;9.23;;;;;;;10.21;100.00;102170.16;4935297;28;20082;-84
2021/11/09 11:37:02;;;;;;;17.25;9.32;;;;;;;10.20;100.00;102177.19;4933267;28;20049;-84
2021/11/09 11:39:30;;;;;;;15.20;9.73;;;;;;;10.25;100.00;102171.97;4963910;28;20507;-88
2021/11/09 11:42:05;;;;;;;26.90;11.80;;;;;;;10.31;100.00;102167.59;4920390;28;20051;-86
2021/11/09 11:44:32;;;;;;;18.13;11.55;;;;;;;10.27;100.00;102175.50;4951852;28;20499;-86
2021/11/09 11:47:05;;;;;;;14.15;8.10;;;;;;;10.29;100.00;102169.34;4952724;28;20536;-86
2021/11/09 11:49:41;;;;;;;17.33;9.90;;;;;;;10.26;100.00;102174.63;4935540;28;20434;-86
2021/11/09 11:52:18;;;;;;;16.15;12.90;;;;;;;10.30;100.00;102173.75;4952817;28;20058;-87
2021/11/09 11:54:51;;;;;;;19.77;11.65;;;;;;;10.38;100.00;102163.22;4950741;28;20047;-86
2021/11/09 11:57:45;;;;;;;20.48;10.10;;;;;;;10.37;100.00;102159.69;4952164;28;20043;-85
2021/11/09 12:00:31;;;;;;;15.10;8.82;;;;;;;10.44;100.00;102165.91;4923068;28;20047;-86
2021/11/09 12:02:59;;;;;;;26.38;10.95;;;;;;;10.54;100.00;102164.19;4950493;28;20074;-87
2021/11/09 12:05:40;;;;;;;12.63;10.25;;;;;;;10.52;100.00;102158.88;5015329;23;20557;-84
2021/11/09 12:08:13;;;;;;;11.77;7.78;;;;;;;10.54;100.00;102154.50;5032136;28;20464;-83
2021/11/09 12:10:49;;;;;;;14.70;11.55;;;;;;;10.60;100.00;102165.09;5035924;28;20047;-84
2021/11/09 12:13:19;;;;;;;12.50;8.15;;;;;;;10.64;100.00;102161.56;4952177;28;20046;-84
2021/11/09 12:15:57;;;;;;;15.13;9.10;;;;;;;10.67;100.00;102156.28;4969207;28;20047;-84
2021/11/09 12:18:27;;;;;;;13.27;7.93;;;;;;;10.73;100.00;102149.25;4966976;28;20043;-83
2021/11/09 12:21:04;;;;;;;15.13;7.57;;;;;;;10.77;100.00;102159.84;4952531;28;20054;-84
2021/11/09 12:23:33;;;;;;;14.02;9.55;;;;;;;10.83;100.00;102154.56;4966498;28;20058;-84
2021/11/09 12:26:40;;;;;;;13.80;8.07;;;;;;;10.80;100.00;102161.59;4956923;28;20046;-83
2021/11/09 12:29:35;;;;;;;12.95;7.70;;;;;;;10.59;100.00;102158.00;4931748;28;20109;-83
2021/11/09 12:32:27;;;;;;;14.20;10.38;;;;;;;10.53;100.00;102160.66;4932740;28;20055;-84
2021/11/09 12:35:11;;;;;;;17.02;10.10;;;;;;;10.41;100.00;102156.19;4937579;28;20042;-83
2021/11/09 12:38:01;;;;;;;14.70;10.50;;;;;;;10.30;100.00;102160.53;4951704;28;20073;-84
2021/11/09 12:40:31;;;;;;;14.15;9.18;;;;;;;10.18;100.00;102157.81;4950444;28;20491;-83
2021/11/09 12:43:20;;;;;;;12.90;7.30;;;;;;;10.14;100.00;102154.28;4967899;28;20059;-83
2021/11/09 12:45:53;;;;;;;11.88;7.60;;;;;;;10.14;100.00;102156.03;4951699;28;20046;-83
2021/11/09 12:48:27;;;;;;;11.05;6.88;;;;;;;10.18;100.00;102155.19;4934538;28;20124;-84
2021/11/09 12:51:00;;;;;;;11.75;6.03;;;;;;;10.22;100.00;102157.00;4952145;28;20046;-83
2021/11/09 12:53:27;;;;;;;11.48;6.35;;;;;;;10.19;100.00;102151.66;4934326;28;20734;-84
2021/11/09 12:55:55;;;;;;;13.43;6.13;;;;;;;10.23;100.00;102152.59;4951763;28;20495;-83
2021/11/09 12:58:23;;;;;;;7.35;5.35;;;;;;;10.23;100.00;102148.19;4949775;28;20043;-84
2021/11/09 13:01:22;;;;;;;8.82;5.05;;;;;;;10.24;99.58;102144.66;4937657;28;20043;-84
2021/11/09 13:03:58;;;;;;;10.02;5.78;;;;;;;10.21;100.00;102141.97;4981520;28;20128;-83
2021/11/09 13:06:39;;;;;;;7.72;5.45;;;;;;;10.15;100.00;102148.09;5036383;28;20051;-83
2021/11/09 13:09:29;;;;;;;14.35;6.38;;;;;;;10.12;100.00;102142.81;5011465;28;20088;-84
2021/11/09 13:11:59;;;;;;;10.05;5.20;;;;;;;10.11;100.00;102141.06;4953614;28;20058;-83
2021/11/09 13:14:37;;;;;;;8.43;5.10;;;;;;;10.12;100.00;102140.19;4965271;28;20065;-83
2021/11/09 13:17:39;;;;;;;10.70;4.30;;;;;;;10.09;100.00;102134.91;4967307;28;20483;-83
2021/11/09 13:20:18;;;;;;;7.95;3.97;;;;;;;10.08;100.00;102133.09;4968440;28;20702;-83
2021/11/09 13:22:58;;;;;;;8.15;3.85;;;;;;;10.09;100.00;102132.25;4970831;28;20047;-83
2021/11/09 13:25:36;;;;;;;7.53;5.15;;;;;;;10.01;100.00;102141.91;4957902;28;20050;-84
2021/11/09 13:28:15;;;;;;;8.07;4.25;;;;;;;10.00;96.18;102144.50;4960049;28;20466;-83
2021/11/09 13:31:19;;;;;;;3.60;2.67;;;;;;;10.01;90.37;102143.66;4993147;28;20038;-81
2021/11/09 13:42:21;;;;;;;4.53;2.70;;;;;;;9.70;92.10;102132.91;4993969;28;20236;-81
2021/11/09 13:44:48;;;;;;;3.92;2.67;;;;;;;9.69;95.83;102133.78;4987430;28;20129;-81
2021/11/09 13:47:28;;;;;;;3.55;2.33;;;;;;;9.68;97.90;102133.78;5002979;28;20058;-82